Skip Navigation Links
NOAA logo - Click to go to the NOAA homepage
NOAA's National Weather Service
Alaska Aviation Weather Unit
  NWS logo - Click to go to the NWS homepage
Left Navbar Graphic     12 AKDT = 20 GMT

   
NOAA is celebrating 200 years of science, service, and stewardship. Visit the NOAA 200th celebration Web site to learn more.
USA.gov is the U.S. Government's official Web portal to all Federal, state and local government Web resources and services.
Facebook
NWS on Facebook

Important Change Regarding the AAWU Web Presence

 

Over the last several months, the AAWU has been working to navigate its webpages to a nationally supported server. Security, as well as other needs, have necessitated the change.  We have been given an extension for the site changeover while we diligently work at addressing feedback received. As of July 14, 2017, aawu.arh.noaa.gov will be discontinued. The new AAWU web address is weather.gov/aawu. It is now live and will run in-parallel with the old site until it is discontinued on July 14, 2017. Please continue to send any feedback or questions regarding the new webpages to nws.ar.aawu.webauthors@noaa.gov.  Thank you for your patience during this time of transition.
AAWU Home :: Display TAF Add Bookmark
PAMY 251403Z AUTO 30008KT 1 1/4SM BR OVC003 07/07 A2996 RMK
     AO2=

METAR PAMY 251456Z AUTO 29008KT 3/4SM BR OVC003 08/08 A2996 RMK AO2
     SLP148 60000 T00780078 53003=

PAMY 251515Z AUTO 29008KT 1/2SM FG OVC003 08/08 A2996 RMK AO2=

SPECI PAMY 251524Z AUTO 30009KT 1SM BR OVC003 08/08 A2996 RMK AO2=

SPECI PAMY 251531Z AUTO 29009KT 3/4SM BR OVC003 08/08 A2997 RMK AO2=

METAR PAMY 251556Z AUTO 30007KT 3/4SM BR OVC003 08/08 A2997 RMK AO2
     SLP151 T00780078=

SPECI PAMY 251653Z AUTO 30006KT 1 1/4SM BR OVC003 08/08 A2996 RMK
     AO2=

METAR PAMY 251656Z AUTO 30007KT 1 1/4SM BR OVC003 08/08 A2996 RMK AO2
     SLP149 T00780078=

SPECI PAMY 251809Z AUTO 29010KT 3SM BR OVC003 08/08 A2998 RMK AO2=

SPECI PAMY 251819Z AUTO 30011KT 2 1/2SM BR OVC003 08/08 A2998 RMK AO2
     VIS 1 1/2V3=

SPECI PAMY 251829Z AUTO 28010KT 3SM BR OVC003 08/08 A2998 RMK AO2=

SPECI PAMY 251837Z AUTO 29009KT 2 1/2SM BR OVC003 08/08 A2998 RMK AO2
     VIS 2V3=

SPECI PAMY 251846Z AUTO 28010KT 4SM BR OVC003 08/08 A2998 RMK AO2=

METAR PAMY 251956Z AUTO 29011KT 7SM OVC003 09/08 A2998 RMK AO2 SLP155
     T00890083=


NOAA's National Weather Service
Alaska Aviation Weather Unit
6930 Sand Lake Road
Anchorage, AK 99502-1845
Disclaimer
Credits
Glossary
Privacy Policy
About Us
Career Opportunities
Contact AAWU Internet Services Site last modified: April, 17th 2012